Time;durP1;ratioP1;P1;durP2;ratioP2;P2;SDS_P1;SDS_P2;PMS_P1;PMS_P2;Temp;Humidity;BMP_temperature;BMP_pressure;BME280_temperature;BME280_humidity;BME280_pressure;Samples;Min_cycle;Max_cycle;Signal;HPM_P1;HPM_P2
2022/04/29 00:00:09;;;;;;;8.20;4.78;;;21.70;36.60;;;;;;5160059;27;20027;-39
2022/04/29 00:02:35;;;;;;;6.50;4.70;;;21.70;36.70;;;;;;5160282;27;20536;-39
2022/04/29 00:05:02;;;;;;;6.15;5.13;;;21.70;36.70;;;;;;5160865;27;20059;-38
2022/04/29 00:07:28;;;;;;;7.75;5.18;;;21.70;36.70;;;;;;5141875;27;20120;-38
2022/04/29 00:09:54;;;;;;;5.80;4.60;;;21.70;36.70;;;;;;5160638;27;20036;-40
2022/04/29 00:12:20;;;;;;;6.32;4.78;;;21.70;36.70;;;;;;5144907;27;20015;-39
2022/04/29 00:14:46;;;;;;;7.25;5.13;;;21.70;36.80;;;;;;5166092;27;20033;-38
2022/04/29 00:17:12;;;;;;;6.70;4.68;;;21.70;36.80;;;;;;5145091;27;20013;-38
2022/04/29 00:19:40;;;;;;;5.10;4.60;;;21.70;36.90;;;;;;5161335;27;20072;-38
2022/04/29 00:22:05;;;;;;;7.25;5.20;;;21.70;36.90;;;;;;5142615;27;20050;-37
2022/04/29 00:24:31;;;;;;;7.25;4.78;;;21.70;36.90;;;;;;5159989;27;20045;-39
2022/04/29 00:26:58;;;;;;;6.70;4.93;;;21.70;36.90;;;;;;5125313;27;20087;-39
2022/04/29 00:29:24;;;;;;;5.57;4.75;;;21.60;36.90;;;;;;5142446;27;20492;-39
2022/04/29 00:31:50;;;;;;;5.88;4.50;;;21.70;37.00;;;;;;5163054;27;20014;-40
2022/04/29 00:34:16;;;;;;;5.90;4.80;;;21.70;37.00;;;;;;5163528;27;20015;-38
2022/04/29 00:36:42;;;;;;;6.30;5.13;;;21.70;37.00;;;;;;5163226;27;20067;-39
2022/04/29 00:39:09;;;;;;;7.47;5.18;;;21.60;37.00;;;;;;5163504;27;20451;-39
2022/04/29 00:41:34;;;;;;;5.15;4.55;;;21.60;37.00;;;;;;5163511;27;20075;-37
2022/04/29 00:44:07;;;;;;;5.25;4.68;;;21.60;37.00;;;;;;5163339;27;20023;-39
2022/04/29 00:46:41;;;;;;;7.75;4.80;;;21.60;37.00;;;;;;5163975;27;20023;-39
2022/04/29 00:49:09;;;;;;;6.57;4.82;;;21.60;37.10;;;;;;5146064;27;20103;-38
2022/04/29 00:51:35;;;;;;;7.95;4.63;;;21.60;37.10;;;;;;5163333;27;20050;-38
2022/04/29 00:54:03;;;;;;;7.10;4.82;;;21.60;37.10;;;;;;5145565;27;20018;-39
2022/04/29 00:56:31;;;;;;;7.35;5.00;;;21.60;37.10;;;;;;5163319;27;20015;-38
2022/04/29 00:59:09;;;;;;;6.35;4.53;;;21.60;37.20;;;;;;5145111;27;20053;-38
2022/04/29 01:01:37;;;;;;;9.23;5.13;;;21.60;37.30;;;;;;5163839;27;20047;-38
2022/04/29 01:04:03;;;;;;;7.47;4.40;;;21.60;37.20;;;;;;5163993;27;20011;-39
2022/04/29 01:06:28;;;;;;;6.82;4.82;;;21.60;37.20;;;;;;5145896;27;20023;-39
2022/04/29 01:08:54;;;;;;;6.00;4.50;;;21.60;37.30;;;;;;5163788;27;20083;-37
2022/04/29 01:11:22;;;;;;;6.32;4.43;;;21.60;37.30;;;;;;5145652;27;20007;-37
2022/04/29 01:13:50;;;;;;;10.25;4.85;;;21.60;37.30;;;;;;5145647;27;20019;-38
2022/04/29 01:16:16;;;;;;;7.30;4.22;;;21.60;37.30;;;;;;5162749;27;20018;-41
2022/04/29 01:18:43;;;;;;;6.82;4.65;;;21.60;37.30;;;;;;5163026;27;20470;-39
2022/04/29 01:21:09;;;;;;;6.28;4.60;;;21.60;37.30;;;;;;5144065;27;20037;-38
2022/04/29 01:23:35;;;;;;;8.52;4.95;;;21.50;37.80;;;;;;5162090;27;20015;-41
2022/04/29 01:26:02;;;;;;;5.63;4.55;;;21.50;37.30;;;;;;5144492;27;20015;-39
2022/04/29 01:28:31;;;;;;;5.40;4.30;;;21.50;37.30;;;;;;5145634;27;20083;-39
2022/04/29 01:30:58;;;;;;;5.67;4.60;;;21.60;37.40;;;;;;5163323;27;20011;-39
2022/04/29 01:33:25;;;;;;;7.47;4.60;;;21.50;37.40;;;;;;5164330;27;20014;-41
2022/04/29 01:35:51;;;;;;;6.72;4.90;;;21.50;37.40;;;;;;5165131;27;20006;-37
2022/04/29 01:38:17;;;;;;;5.97;4.40;;;21.50;37.40;;;;;;5147356;27;20448;-39
2022/04/29 01:40:43;;;;;;;8.70;4.88;;;21.50;37.40;;;;;;5163303;27;20082;-38
2022/04/29 01:43:10;;;;;;;6.03;4.28;;;21.50;38.00;;;;;;5123830;27;20018;-37
2022/04/29 01:45:36;;;;;;;8.82;4.80;;;21.50;37.50;;;;;;5140599;27;20015;-37
2022/04/29 01:48:02;;;;;;;7.53;4.63;;;21.50;37.50;;;;;;5140083;27;20026;-36
2022/04/29 01:50:28;;;;;;;7.18;4.50;;;21.50;37.50;;;;;;5158061;27;20113;-38
2022/04/29 01:52:54;;;;;;;6.95;4.15;;;21.50;37.50;;;;;;5159076;27;20031;-36
2022/04/29 01:55:19;;;;;;;5.97;4.60;;;21.50;37.50;;;;;;5160554;27;20026;-38
2022/04/29 01:57:46;;;;;;;6.03;4.20;;;21.50;37.50;;;;;;5162151;27;20011;-37
2022/04/29 02:00:12;;;;;;;6.68;4.20;;;21.50;37.50;;;;;;5142253;27;20026;-37
2022/04/29 02:02:38;;;;;;;5.82;4.30;;;21.50;37.60;;;;;;5162271;27;20019;-38
2022/04/29 02:05:05;;;;;;;7.00;4.50;;;21.50;37.60;;;;;;5162981;27;20014;-37
2022/04/29 02:07:31;;;;;;;6.43;4.53;;;21.50;37.60;;;;;;5163876;27;20038;-38
2022/04/29 02:09:57;;;;;;;6.32;4.50;;;21.50;37.60;;;;;;5144821;27;20019;-38
2022/04/29 02:12:22;;;;;;;7.10;4.15;;;21.50;37.60;;;;;;5163034;27;20127;-38
2022/04/29 02:14:48;;;;;;;5.60;4.10;;;21.50;37.60;;;;;;5162441;27;20019;-40
2022/04/29 02:17:15;;;;;;;7.10;4.43;;;21.50;37.60;;;;;;5142446;27;20027;-38
2022/04/29 02:19:41;;;;;;;6.45;4.60;;;21.50;37.70;;;;;;5161398;27;20026;-38
2022/04/29 02:22:08;;;;;;;5.95;4.43;;;21.50;37.70;;;;;;5143900;27;20026;-37
2022/04/29 02:24:34;;;;;;;5.85;4.07;;;21.50;37.70;;;;;;5162208;27;20015;-38
2022/04/29 02:27:02;;;;;;;6.28;4.53;;;21.50;37.70;;;;;;5158060;27;20129;-37
2022/04/29 02:29:28;;;;;;;6.32;4.70;;;21.50;37.70;;;;;;5158060;27;20076;-36
2022/04/29 02:31:54;;;;;;;7.30;4.30;;;21.50;37.70;;;;;;5158835;27;20015;-39
2022/04/29 02:34:19;;;;;;;4.78;4.20;;;21.40;37.60;;;;;;5138892;27;20007;-38
2022/04/29 02:36:45;;;;;;;5.82;4.10;;;21.50;37.70;;;;;;5158437;27;20529;-37
2022/04/29 02:39:11;;;;;;;5.18;4.20;;;21.40;37.70;;;;;;5159120;27;20788;-37
2022/04/29 02:41:37;;;;;;;6.93;4.57;;;21.50;37.80;;;;;;5162612;27;20025;-38
2022/04/29 02:44:04;;;;;;;5.25;4.20;;;21.40;37.70;;;;;;5145006;27;20023;-39
2022/04/29 02:46:29;;;;;;;5.50;4.22;;;21.40;37.70;;;;;;5144947;27;20026;-37
2022/04/29 02:48:56;;;;;;;6.65;4.40;;;21.40;37.70;;;;;;5163454;27;20078;-39
2022/04/29 02:51:21;;;;;;;5.20;3.85;;;21.50;37.80;;;;;;5162711;27;20042;-38
2022/04/29 02:53:47;;;;;;;8.10;4.78;;;21.40;37.80;;;;;;5144727;27;20015;-37
2022/04/29 02:56:13;;;;;;;9.13;4.18;;;21.40;37.80;;;;;;5143671;27;20040;-38
2022/04/29 02:58:39;;;;;;;4.95;3.83;;;21.40;37.80;;;;;;5158464;27;20015;-36
2022/04/29 03:01:05;;;;;;;5.95;4.00;;;21.40;37.80;;;;;;5157783;27;20025;-39
2022/04/29 03:03:31;;;;;;;7.53;4.80;;;21.40;37.80;;;;;;5122521;27;20022;-41
2022/04/29 03:05:57;;;;;;;6.63;4.72;;;21.40;37.80;;;;;;5157631;27;20030;-38
2022/04/29 03:08:23;;;;;;;6.55;4.60;;;21.40;37.80;;;;;;5159467;27;20010;-40
2022/04/29 03:10:49;;;;;;;6.60;4.00;;;21.40;37.80;;;;;;5158347;27;20027;-37
2022/04/29 03:13:15;;;;;;;6.00;4.32;;;21.40;37.90;;;;;;5144356;27;20098;-38
2022/04/29 03:15:41;;;;;;;6.93;4.15;;;21.40;37.90;;;;;;5145065;27;20476;-38
2022/04/29 03:18:21;;;;;;;7.22;4.20;;;21.40;37.90;;;;;;5164223;27;20023;-39
2022/04/29 03:20:51;;;;;;;6.25;4.20;;;21.40;37.90;;;;;;5163145;27;20062;-40
2022/04/29 03:23:16;;;;;;;;;;;21.40;37.90;;;;;;5163519;27;20471;-40
2022/04/29 03:25:42;;;;;;;7.00;4.35;;;21.40;37.90;;;;;;5163315;27;20379;-40
2022/04/29 03:28:09;;;;;;;5.53;4.30;;;21.40;37.90;;;;;;5163381;27;20030;-39
2022/04/29 03:30:35;;;;;;;6.13;4.25;;;21.40;37.90;;;;;;5145008;27;20030;-40
2022/04/29 03:33:05;;;;;;;5.53;4.18;;;21.40;37.90;;;;;;5162720;27;20046;-38
2022/04/29 03:35:30;;;;;;;6.47;4.07;;;21.30;37.90;;;;;;5163818;27;20015;-39
2022/04/29 03:37:56;;;;;;;5.85;4.10;;;21.30;37.90;;;;;;5163671;27;20022;-39
2022/04/29 03:40:23;;;;;;;5.85;4.40;;;21.30;37.90;;;;;;5162418;27;20049;-38
2022/04/29 03:42:51;;;;;;;5.43;4.38;;;21.40;37.90;;;;;;5140190;27;20015;-38
2022/04/29 03:45:17;;;;;;;5.43;3.97;;;21.30;38.10;;;;;;5159947;27;20468;-38
2022/04/29 03:47:43;;;;;;;5.65;4.28;;;21.40;37.90;;;;;;5162356;27;20030;-38
2022/04/29 03:50:09;;;;;;;6.53;4.28;;;21.40;37.90;;;;;;5161818;27;20097;-38
2022/04/29 03:52:47;;;;;;;5.57;4.30;;;21.30;37.90;;;;;;5161285;27;20003;-39
2022/04/29 03:55:23;;;;;;;6.93;4.20;;;21.30;37.90;;;;;;5163459;27;20532;-41
2022/04/29 03:57:50;;;;;;;5.75;3.90;;;21.40;37.90;;;;;;5167274;27;20022;-39
2022/04/29 04:00:17;;;;;;;6.70;4.25;;;21.30;37.90;;;;;;5166144;27;20037;-38
2022/04/29 04:02:43;;;;;;;5.38;3.88;;;21.30;37.90;;;;;;5147081;27;20010;-39
2022/04/29 04:05:09;;;;;;;8.27;4.85;;;21.30;37.90;;;;;;5166442;27;20089;-42
2022/04/29 04:07:35;;;;;;;7.35;4.40;;;21.30;37.90;;;;;;5166836;27;20095;-39
2022/04/29 04:10:01;;;;;;;6.50;4.38;;;21.30;37.90;;;;;;5147982;27;20011;-38
2022/04/29 04:12:42;;;;;;;5.38;4.00;;;21.30;37.90;;;;;;5166656;27;20033;-39
2022/04/29 04:15:09;;;;;;;4.95;3.90;;;21.30;37.90;;;;;;5165869;27;20026;-40
2022/04/29 04:17:35;;;;;;;4.45;3.75;;;21.30;37.90;;;;;;5165788;27;20118;-41
2022/04/29 04:20:00;;;;;;;7.00;4.32;;;21.30;37.90;;;;;;5166560;27;20497;-40
2022/04/29 04:22:27;;;;;;;5.95;4.10;;;21.30;37.90;;;;;;5165828;27;20078;-39
2022/04/29 04:24:53;;;;;;;4.93;3.95;;;21.30;38.00;;;;;;5165800;27;20015;-40
2022/04/29 04:27:19;;;;;;;6.18;3.88;;;21.30;37.90;;;;;;5147317;27;20119;-41
2022/04/29 04:29:44;;;;;;;5.65;4.00;;;21.30;37.90;;;;;;5166011;27;20384;-39
2022/04/29 04:32:10;;;;;;;6.45;4.32;;;21.30;37.90;;;;;;5147707;27;20015;-39
2022/04/29 04:34:53;;;;;;;6.90;4.05;;;21.30;37.90;;;;;;5146656;27;20018;-39
2022/04/29 04:37:22;;;;;;;6.00;3.90;;;21.30;37.90;;;;;;5164721;27;20018;-38
2022/04/29 04:39:49;;;;;;;;;;;21.20;37.90;;;;;;5163776;27;20026;-37
2022/04/29 04:42:14;;;;;;;4.22;3.80;;;21.30;37.90;;;;;;5163853;27;19899;-40
2022/04/29 04:44:41;;;;;;;4.13;3.65;;;21.30;37.90;;;;;;5163816;27;20468;-37
2022/04/29 04:47:07;;;;;;;6.05;3.95;;;21.20;37.90;;;;;;5163573;27;20025;-38
2022/04/29 04:49:33;;;;;;;7.22;4.40;;;21.20;37.90;;;;;;5145581;27;20056;-40
2022/04/29 04:51:59;;;;;;;5.47;3.85;;;21.20;37.90;;;;;;5163763;27;20011;-38
2022/04/29 04:54:27;;;;;;;5.20;4.05;;;21.20;37.90;;;;;;5163749;27;20480;-41
2022/04/29 04:56:53;;;;;;;6.18;4.07;;;21.20;37.90;;;;;;5159020;27;20053;-38
2022/04/29 04:59:18;;;;;;;4.53;4.13;;;21.20;37.80;;;;;;5124674;27;20027;-39
2022/04/29 05:01:44;;;;;;;4.95;3.92;;;21.30;37.90;;;;;;5159983;27;20065;-39
2022/04/29 05:04:10;;;;;;;4.32;3.90;;;21.20;37.80;;;;;;5141807;27;20019;-38
2022/04/29 05:06:40;;;;;;;7.13;3.97;;;21.30;37.90;;;;;;5160232;27;20113;-38
2022/04/29 05:09:06;;;;;;;6.43;4.00;;;21.20;37.80;;;;;;5160802;27;20019;-38
2022/04/29 05:11:32;;;;;;;4.45;3.55;;;21.20;37.80;;;;;;5162314;27;20017;-38
2022/04/29 05:13:58;;;;;;;5.78;4.35;;;21.20;37.90;;;;;;5163163;27;20372;-41
2022/04/29 05:16:24;;;;;;;4.80;3.72;;;21.20;37.90;;;;;;5144585;27;20019;-39
2022/04/29 05:18:50;;;;;;;5.78;4.00;;;21.20;37.90;;;;;;5143611;27;20017;-38
2022/04/29 05:21:17;;;;;;;5.90;4.03;;;21.20;37.90;;;;;;5143580;27;20078;-39
2022/04/29 05:23:43;;;;;;;6.40;4.38;;;21.20;37.90;;;;;;5162395;27;20015;-39
2022/04/29 05:26:09;;;;;;;5.53;4.20;;;21.20;37.90;;;;;;5162283;27;20023;-38
2022/04/29 05:28:35;;;;;;;5.93;4.13;;;21.20;37.80;;;;;;5143524;27;20022;-40
2022/04/29 05:31:01;;;;;;;6.05;4.10;;;21.20;37.80;;;;;;5142425;27;20015;-39
2022/04/29 05:33:27;;;;;;;6.53;4.18;;;21.20;37.80;;;;;;5161256;27;20018;-38
2022/04/29 05:35:52;;;;;;;5.43;3.88;;;21.20;37.80;;;;;;5162174;27;20023;-38
2022/04/29 05:38:18;;;;;;;5.45;4.05;;;21.20;37.70;;;;;;5162150;27;20007;-38
2022/04/29 05:43:28;;;;;;;6.57;3.78;;;21.20;37.80;;;;;;5160130;27;20087;-39
2022/04/29 05:46:02;;;;;;;5.32;4.20;;;21.20;37.80;;;;;;5161787;27;20018;-41
2022/04/29 05:48:28;;;;;;;5.70;3.90;;;21.20;37.70;;;;;;5142633;27;20118;-39
2022/04/29 05:50:54;;;;;;;5.80;4.15;;;21.30;37.60;;;;;;5142671;27;20018;-39
2022/04/29 05:53:21;;;;;;;4.80;3.97;;;21.40;37.50;;;;;;5142789;27;20011;-37
2022/04/29 05:55:47;;;;;;;5.90;4.28;;;21.50;37.30;;;;;;5159216;27;20014;-39
2022/04/29 05:58:13;;;;;;;5.68;3.65;;;21.70;37.10;;;;;;5139298;27;20015;-39
2022/04/29 06:00:40;;;;;;;5.30;4.00;;;21.80;36.80;;;;;;5158491;27;20404;-40
2022/04/29 06:03:06;;;;;;;5.95;3.90;;;21.90;36.60;;;;;;5157528;27;20011;-39
2022/04/29 06:05:31;;;;;;;7.57;4.07;;;22.00;36.50;;;;;;5138293;27;20026;-41
2022/04/29 06:07:58;;;;;;;5.18;3.90;;;22.10;36.30;;;;;;5158247;27;20078;-38
2022/04/29 06:10:24;;;;;;;5.03;4.00;;;22.20;36.10;;;;;;5157756;27;20441;-39
2022/04/29 06:12:50;;;;;;;5.65;3.97;;;22.30;35.90;;;;;;5156907;27;20410;-40
2022/04/29 06:15:16;;;;;;;5.90;3.85;;;22.40;35.60;;;;;;5158003;27;20072;-39
2022/04/29 06:17:43;;;;;;;4.82;3.67;;;22.50;35.50;;;;;;5139982;27;20088;-41
2022/04/29 06:20:09;;;;;;;7.05;3.85;;;22.60;35.40;;;;;;5154578;27;20068;-38
2022/04/29 06:22:44;;;;;;;4.95;3.88;;;22.60;35.30;;;;;;5135699;27;20460;-38
2022/04/29 06:25:10;;;;;;;14.05;4.03;;;22.30;36.20;;;;;;5138464;27;20018;-38
2022/04/29 06:27:36;;;;;;;24.33;5.72;;;22.40;36.70;;;;;;5155456;27;20027;-38
2022/04/29 06:30:02;;;;;;;24.13;6.38;;;20.70;39.90;;;;;;5155939;27;20085;-40
2022/04/29 06:32:28;;;;;;;19.15;6.90;;;20.10;41.00;;;;;;5120107;27;20483;-43
2022/04/29 06:34:56;;;;;;;19.15;6.45;;;20.00;40.90;;;;;;5155962;27;20015;-40
2022/04/29 06:37:22;;;;;;;14.23;6.03;;;19.70;41.60;;;;;;5155978;27;20015;-39
2022/04/29 06:39:47;;;;;;;16.73;6.05;;;19.30;42.30;;;;;;5119875;27;20044;-38
2022/04/29 06:42:16;;;;;;;17.55;6.60;;;19.10;42.60;;;;;;5137486;27;20100;-38
2022/04/29 06:44:42;;;;;;;15.27;6.70;;;19.00;42.80;;;;;;5155655;27;20421;-39
2022/04/29 06:47:08;;;;;;;15.18;6.63;;;18.80;43.00;;;;;;5155570;27;20433;-41
2022/04/29 06:49:34;;;;;;;13.32;5.95;;;18.80;43.30;;;;;;5136547;27;20479;-39
2022/04/29 06:51:59;;;;;;;15.43;7.18;;;18.70;44.00;;;;;;5155274;27;20139;-39
2022/04/29 06:54:25;;;;;;;10.60;5.97;;;18.70;43.70;;;;;;5136594;27;20063;-39
2022/04/29 06:56:53;;;;;;;12.25;6.53;;;18.70;43.80;;;;;;5155090;27;20097;-39
2022/04/29 06:59:19;;;;;;;11.10;5.75;;;18.70;43.90;;;;;;5154633;27;20114;-39
2022/04/29 07:01:44;;;;;;;12.35;6.30;;;18.80;43.60;;;;;;5155113;27;20063;-39
2022/04/29 07:04:11;;;;;;;12.82;6.50;;;18.70;43.50;;;;;;5136247;27;20154;-39
2022/04/29 07:06:37;;;;;;;14.27;6.75;;;18.70;43.20;;;;;;5155270;27;20023;-39
2022/04/29 07:09:05;;;;;;;13.15;6.93;;;18.70;43.20;;;;;;5155008;27;20025;-40
2022/04/29 07:11:31;;;;;;;13.50;6.90;;;18.60;44.20;;;;;;5136050;27;20011;-40
2022/04/29 07:13:57;;;;;;;16.65;7.20;;;18.60;43.70;;;;;;5135901;27;20070;-39
2022/04/29 07:16:23;;;;;;;19.10;6.72;;;18.60;44.10;;;;;;5135915;27;20064;-40
2022/04/29 07:18:50;;;;;;;21.55;7.03;;;18.70;44.00;;;;;;5137014;27;20031;-41
2022/04/29 07:21:18;;;;;;;17.85;8.52;;;18.80;44.30;;;;;;5135799;27;20042;-39
2022/04/29 07:23:44;;;;;;;14.85;7.18;;;18.60;44.60;;;;;;5154724;27;20010;-39
2022/04/29 07:26:10;;;;;;;10.48;7.25;;;18.40;44.60;;;;;;5154775;27;20015;-39
2022/04/29 07:28:35;;;;;;;14.38;6.82;;;18.30;44.50;;;;;;5154730;27;20015;-40
2022/04/29 07:31:01;;;;;;;13.02;6.80;;;18.30;43.90;;;;;;5135789;27;20050;-39
2022/04/29 07:33:27;;;;;;;14.80;7.50;;;18.30;43.80;;;;;;5135911;27;20043;-40
2022/04/29 07:44:06;;;;;;;11.40;7.35;;;18.30;43.60;;;;;;5154885;27;20076;-40
2022/04/29 07:46:32;;;;;;;16.40;8.57;;;18.40;43.60;;;;;;5155239;27;20027;-42
2022/04/29 07:48:58;;;;;;;13.18;8.00;;;18.40;43.70;;;;;;5136727;27;20453;-40
2022/04/29 07:51:24;;;;;;;16.40;7.45;;;18.50;43.40;;;;;;5136759;27;20028;-39
2022/04/29 07:53:50;;;;;;;11.13;6.85;;;18.70;43.20;;;;;;5155171;27;20011;-39
2022/04/29 07:56:16;;;;;;;14.05;6.93;;;18.60;43.70;;;;;;5154920;27;20018;-40
2022/04/29 07:58:42;;;;;;;16.67;6.97;;;18.50;43.80;;;;;;5136780;27;20114;-40
2022/04/29 08:01:11;;;;;;;11.15;6.53;;;18.50;43.40;;;;;;5136303;27;20585;-41
2022/04/29 08:03:37;;;;;;;12.65;6.72;;;18.50;43.80;;;;;;5136319;27;20027;-41
2022/04/29 08:06:04;;;;;;;15.10;5.47;;;18.50;43.70;;;;;;5156559;27;20003;-41
2022/04/29 08:08:30;;;;;;;9.25;4.82;;;18.90;43.20;;;;;;5155273;27;20022;-40
2022/04/29 08:10:56;;;;;;;14.30;4.68;;;19.50;41.80;;;;;;5136862;27;20050;-41
2022/04/29 08:13:24;;;;;;;9.70;3.85;;;19.90;40.70;;;;;;5155779;27;20022;-40
2022/04/29 08:15:52;;;;;;;12.07;3.90;;;20.20;40.10;;;;;;5154576;27;20015;-38
2022/04/29 08:18:19;;;;;;;11.32;3.55;;;20.40;39.50;;;;;;5154372;27;20130;-41
2022/04/29 08:20:45;;;;;;;22.63;5.07;;;20.60;39.10;;;;;;5156290;27;20053;-40
2022/04/29 08:23:10;;;;;;;12.10;3.92;;;20.60;38.90;;;;;;5135744;27;20021;-38
2022/04/29 08:25:37;;;;;;;10.88;4.35;;;20.50;39.20;;;;;;5154392;27;20019;-39
2022/04/29 08:28:03;;;;;;;8.27;3.47;;;20.60;38.90;;;;;;5155492;27;20092;-39
2022/04/29 08:30:30;;;;;;;16.50;4.22;;;20.70;38.70;;;;;;5156449;27;20018;-39
2022/04/29 08:32:56;;;;;;;8.48;3.22;;;20.80;38.40;;;;;;5140226;27;20098;-39
2022/04/29 08:35:22;;;;;;;17.00;4.40;;;20.80;38.30;;;;;;5159783;27;20451;-39
2022/04/29 08:37:49;;;;;;;12.95;4.30;;;20.80;38.20;;;;;;5159282;27;20021;-39
2022/04/29 08:40:15;;;;;;;13.27;3.95;;;20.70;38.20;;;;;;5141660;27;20102;-39
2022/04/29 08:42:41;;;;;;;8.13;3.33;;;20.80;38.20;;;;;;5159354;27;20440;-39
2022/04/29 08:45:14;;;;;;;9.05;3.75;;;20.90;38.00;;;;;;5160161;27;20023;-39
2022/04/29 08:47:41;;;;;;;10.63;4.38;;;20.90;37.90;;;;;;5160717;27;20527;-40
2022/04/29 08:50:10;;;;;;;9.68;4.25;;;20.80;37.90;;;;;;5141403;27;20113;-39
2022/04/29 08:52:36;;;;;;;7.35;3.40;;;20.80;37.90;;;;;;5161744;27;20066;-39
2022/04/29 09:00:38;;;;;;;11.20;4.25;;;20.70;37.90;;;;;;5145253;27;20069;-40
2022/04/29 09:03:15;;;;;;;13.63;5.07;;;20.70;37.90;;;;;;5141291;27;20014;-39
2022/04/29 09:05:41;;;;;;;13.02;5.50;;;20.80;37.90;;;;;;5139994;27;20040;-39
2022/04/29 09:08:08;;;;;;;9.68;4.40;;;20.80;37.80;;;;;;5158533;27;20410;-41
2022/04/29 09:10:38;;;;;;;12.40;4.40;;;20.80;37.90;;;;;;5139679;27;20011;-39
2022/04/29 09:13:14;;;;;;;6.85;3.97;;;20.80;37.80;;;;;;5139062;27;20089;-39
2022/04/29 09:15:58;;;;;;;9.20;4.10;;;20.80;37.90;;;;;;5140152;27;20090;-40
2022/04/29 09:18:41;;;;;;;7.80;3.38;;;21.00;37.80;;;;;;5158929;27;20079;-39
2022/04/29 09:21:16;;;;;;;10.52;3.95;;;21.00;37.50;;;;;;5159003;27;20066;-39
2022/04/29 09:23:47;;;;;;;10.30;4.32;;;21.20;37.40;;;;;;5157971;27;20078;-38
2022/04/29 09:26:25;;;;;;;7.55;3.40;;;21.20;37.20;;;;;;5158799;27;20048;-39
2022/04/29 09:29:14;;;;;;;10.55;3.80;;;21.30;37.10;;;;;;5158790;27;20095;-38
2022/04/29 09:31:56;;;;;;;10.23;3.60;;;21.30;37.00;;;;;;5158305;27;20544;-38
2022/04/29 09:34:22;;;;;;;10.50;3.60;;;21.30;37.00;;;;;;5159179;27;20019;-38
2022/04/29 09:36:48;;;;;;;9.40;4.35;;;21.30;36.90;;;;;;5158910;27;20468;-39
2022/04/29 09:39:34;;;;;;;10.70;3.95;;;21.40;36.90;;;;;;5158954;27;20018;-38
2022/04/29 09:42:04;;;;;;;10.02;4.00;;;21.40;37.00;;;;;;5158256;27;20050;-39
2022/04/29 09:44:34;;;;;;;;;;;21.40;36.90;;;;;;5140567;27;20098;-38
2022/04/29 09:47:13;;;;;;;11.43;4.95;;;21.50;36.80;;;;;;5158808;27;19908;-40
2022/04/29 09:49:40;;;;;;;6.68;3.72;;;21.60;37.10;;;;;;5139965;27;20087;-38
2022/04/29 09:52:06;;;;;;;8.82;3.97;;;21.70;36.40;;;;;;5139273;27;20015;-39
2022/04/29 09:54:37;;;;;;;9.15;4.28;;;21.80;36.30;;;;;;5121575;27;20391;-38
2022/04/29 09:57:23;;;;;;;9.80;3.85;;;21.80;36.20;;;;;;5123094;27;20022;-40
2022/04/29 09:59:53;;;;;;;6.70;3.40;;;21.80;36.30;;;;;;5158880;27;20030;-40
2022/04/29 10:02:24;;;;;;;7.50;3.92;;;21.70;36.50;;;;;;5159766;27;20376;-39
2022/04/29 10:04:50;;;;;;;9.20;4.50;;;21.70;36.40;;;;;;5140091;27;20015;-38
2022/04/29 10:07:17;;;;;;;7.82;4.25;;;21.80;36.30;;;;;;5159031;27;20026;-40
2022/04/29 10:09:54;;;;;;;7.30;3.95;;;21.90;36.20;;;;;;5160345;27;20082;-41
2022/04/29 10:12:21;;;;;;;8.80;3.33;;;21.90;36.20;;;;;;5141771;27;20015;-39
2022/04/29 10:14:49;;;;;;;7.82;3.83;;;21.90;36.10;;;;;;5141419;27;20102;-41
2022/04/29 10:22:53;;;;;;;8.65;3.97;;;21.90;36.20;;;;;;5143661;27;20034;-39
2022/04/29 10:25:21;;;;;;;8.82;3.65;;;22.00;36.30;;;;;;5141026;27;20488;-39
2022/04/29 10:27:48;;;;;;;10.27;3.78;;;22.00;36.30;;;;;;5159263;27;20027;-43
2022/04/29 10:30:15;;;;;;;8.63;4.13;;;21.90;36.20;;;;;;5141530;27;20068;-42
2022/04/29 10:33:03;;;;;;;8.98;3.85;;;21.90;36.30;;;;;;5142311;27;20022;-40
2022/04/29 10:35:45;;;;;;;7.82;3.72;;;21.90;36.60;;;;;;5159019;27;20110;-39
2022/04/29 10:38:27;;;;;;;7.47;3.75;;;21.80;36.60;;;;;;5140831;27;20018;-39
2022/04/29 10:41:09;;;;;;;13.55;4.40;;;21.90;36.60;;;;;;5159225;27;20018;-39
2022/04/29 10:43:45;;;;;;;7.50;3.92;;;21.80;36.60;;;;;;5158707;27;20018;-39
2022/04/29 10:46:11;;;;;;;9.77;4.13;;;21.80;36.60;;;;;;5158312;27;20095;-42
2022/04/29 10:48:40;;;;;;;7.55;3.53;;;21.80;36.70;;;;;;5158244;27;20029;-40
2022/04/29 10:51:18;;;;;;;9.23;4.00;;;21.80;36.70;;;;;;5158442;27;20079;-40
2022/04/29 10:53:47;;;;;;;7.28;3.63;;;21.80;37.00;;;;;;5157838;27;20019;-40
2022/04/29 10:56:29;;;;;;;9.25;4.18;;;21.70;37.00;;;;;;5157724;27;20013;-41
2022/04/29 10:59:04;;;;;;;8.18;4.07;;;21.70;36.90;;;;;;5158062;27;20015;-39
2022/04/29 11:01:33;;;;;;;11.13;4.05;;;21.80;36.80;;;;;;5157913;27;20015;-40
2022/04/29 11:03:59;;;;;;;8.23;4.13;;;21.80;36.80;;;;;;5156493;27;20030;-40
2022/04/29 11:06:36;;;;;;;10.20;4.53;;;21.90;36.70;;;;;;5138262;27;20029;-40
2022/04/29 11:09:01;;;;;;;12.52;4.93;;;21.90;36.70;;;;;;5156961;27;20023;-39
2022/04/29 11:11:43;;;;;;;10.90;4.35;;;21.90;36.70;;;;;;5156982;27;20090;-40
2022/04/29 11:14:12;;;;;;;12.98;4.70;;;21.90;36.80;;;;;;5156449;27;20036;-41
2022/04/29 11:16:55;;;;;;;11.35;4.78;;;21.90;36.70;;;;;;5138570;27;20438;-40
2022/04/29 11:19:28;;;;;;;12.68;4.90;;;22.00;36.80;;;;;;5156502;27;20082;-39
2022/04/29 11:24:47;;;;;;;7.88;3.78;;;22.00;37.20;;;;;;5140700;27;20062;-39
2022/04/29 11:27:23;;;;;;;11.77;4.30;;;21.90;37.00;;;;;;5156793;27;20019;-41
2022/04/29 11:29:49;;;;;;;9.20;4.13;;;22.00;36.90;;;;;;5122297;27;20035;-41
2022/04/29 11:32:22;;;;;;;10.38;4.07;;;22.00;36.80;;;;;;5157341;27;20545;-40
2022/04/29 11:34:55;;;;;;;8.82;4.32;;;21.90;36.90;;;;;;5140344;27;20449;-39
2022/04/29 11:37:25;;;;;;;10.45;4.85;;;21.80;37.30;;;;;;5155841;27;20029;-39
2022/04/29 11:39:52;;;;;;;12.32;4.63;;;21.70;37.30;;;;;;5153578;27;20023;-39
2022/04/29 11:42:19;;;;;;;17.58;6.57;;;21.60;37.50;;;;;;5117718;27;20011;-38
2022/04/29 11:44:49;;;;;;;17.50;6.45;;;21.00;40.30;;;;;;5134684;27;20018;-38
2022/04/29 11:47:16;;;;;;;26.25;7.70;;;21.00;40.60;;;;;;5153366;27;20021;-38
2022/04/29 11:49:42;;;;;;;32.85;6.82;;;20.40;42.70;;;;;;5135206;27;20011;-37
2022/04/29 11:52:24;;;;;;;23.73;6.72;;;20.50;43.00;;;;;;5153640;27;20011;-38
2022/04/29 11:54:50;;;;;;;26.42;8.65;;;20.90;42.20;;;;;;5134963;27;20060;-38
2022/04/29 11:57:16;;;;;;;19.02;7.85;;;20.60;42.20;;;;;;5153301;27;20014;-37
2022/04/29 11:59:42;;;;;;;21.90;7.47;;;20.90;41.80;;;;;;5153594;27;20152;-38
2022/04/29 12:02:11;;;;;;;17.35;6.72;;;20.70;42.60;;;;;;5117919;27;20497;-37
2022/04/29 12:04:37;;;;;;;17.98;8.00;;;21.00;41.60;;;;;;5153690;27;20023;-37
2022/04/29 12:07:05;;;;;;;15.10;8.35;;;21.00;40.80;;;;;;5137900;27;20063;-37
2022/04/29 12:09:34;;;;;;;16.70;7.28;;;21.20;40.60;;;;;;5138725;27;20015;-38
2022/04/29 12:11:59;;;;;;;15.00;8.75;;;20.70;41.50;;;;;;5157592;27;20011;-38
2022/04/29 12:14:26;;;;;;;15.05;6.78;;;20.90;40.70;;;;;;5157377;27;20018;-38
2022/04/29 12:16:52;;;;;;;16.50;7.65;;;21.10;41.20;;;;;;5157276;27;20042;-37
2022/04/29 12:19:21;;;;;;;16.40;8.45;;;21.10;40.70;;;;;;5157094;27;20065;-38
2022/04/29 12:21:57;;;;;;;11.52;7.47;;;20.80;41.60;;;;;;5157168;27;20111;-38
2022/04/29 12:24:25;;;;;;;16.13;7.45;;;20.50;42.40;;;;;;5121619;27;20047;-38
2022/04/29 12:27:04;;;;;;;17.80;8.00;;;20.80;42.10;;;;;;5157482;27;20022;-39
2022/04/29 12:29:30;;;;;;;15.13;6.82;;;20.80;41.40;;;;;;5157939;27;20019;-37
2022/04/29 12:34:49;;;;;;;11.27;5.40;;;21.60;39.70;;;;;;5142621;27;20030;-39
2022/04/29 12:37:19;;;;;;;15.35;5.68;;;21.90;39.00;;;;;;5158218;27;20026;-40
2022/04/29 12:39:46;;;;;;;18.50;4.63;;;22.20;38.40;;;;;;5158177;27;20015;-38
2022/04/29 12:42:17;;;;;;;10.40;3.88;;;22.40;37.90;;;;;;5140034;27;20022;-38
2022/04/29 12:45:04;;;;;;;;;;;22.60;37.60;;;;;;5158361;27;20118;-39
2022/04/29 12:47:33;;;;;;;12.13;4.50;;;22.70;37.30;;;;;;5158918;27;19929;-40
2022/04/29 12:50:38;;;;;;;16.30;4.25;;;22.80;37.20;;;;;;5159448;27;20030;-39
2022/04/29 12:53:09;;;;;;;10.70;3.72;;;22.90;36.90;;;;;;5055552;28;20159;-39
2022/04/29 12:55:47;;;;;;;12.20;3.60;;;23.00;36.80;;;;;;5055392;28;20036;-39
2022/04/29 12:58:14;;;;;;;12.77;4.65;;;23.10;36.70;;;;;;5054751;28;20029;-39
2022/04/29 13:00:42;;;;;;;13.82;3.75;;;23.10;36.50;;;;;;5055316;28;20494;-38
2022/04/29 13:03:09;;;;;;;13.00;3.70;;;23.10;36.40;;;;;;5054517;28;20491;-38
2022/04/29 13:05:35;;;;;;;12.32;3.80;;;23.10;36.40;;;;;;5055058;28;20486;-40
2022/04/29 13:08:01;;;;;;;11.90;3.63;;;23.20;36.30;;;;;;5055341;28;20032;-38
2022/04/29 13:10:27;;;;;;;11.60;3.63;;;23.20;36.20;;;;;;5054766;28;20013;-39
2022/04/29 13:12:54;;;;;;;14.55;3.80;;;23.20;36.20;;;;;;5053481;28;20525;-38
2022/04/29 13:15:19;;;;;;;14.00;4.28;;;23.10;36.10;;;;;;5052889;28;20071;-38